sensor_id;sensor_type;location;lat;lon;timestamp;P1;durP1;ratioP1;P2;durP2;ratioP2
23121;SDS011;11730;51.248;22.534;2023-04-22T00:01:08;15.63;;;8.68;;
23121;SDS011;11730;51.248;22.534;2023-04-22T00:03:35;15.82;;;8.15;;
23121;SDS011;11730;51.248;22.534;2023-04-22T00:06:04;15.35;;;7.85;;
23121;SDS011;11730;51.248;22.534;2023-04-22T00:08:31;17.27;;;9.32;;
23121;SDS011;11730;51.248;22.534;2023-04-22T00:10:58;20.85;;;9.07;;
23121;SDS011;11730;51.248;22.534;2023-04-22T00:13:26;14.35;;;7.88;;
23121;SDS011;11730;51.248;22.534;2023-04-22T00:15:53;13.93;;;8.18;;
23121;SDS011;11730;51.248;22.534;2023-04-22T00:18:20;15.68;;;8.23;;
23121;SDS011;11730;51.248;22.534;2023-04-22T00:20:47;19.25;;;8.23;;
23121;SDS011;11730;51.248;22.534;2023-04-22T00:23:14;16.60;;;8.00;;
23121;SDS011;11730;51.248;22.534;2023-04-22T00:25:42;17.77;;;8.23;;
23121;SDS011;11730;51.248;22.534;2023-04-22T00:28:08;14.88;;;7.90;;
23121;SDS011;11730;51.248;22.534;2023-04-22T00:30:36;15.00;;;7.82;;
23121;SDS011;11730;51.248;22.534;2023-04-22T00:33:03;12.38;;;7.30;;
23121;SDS011;11730;51.248;22.534;2023-04-22T00:35:30;19.23;;;8.00;;
23121;SDS011;11730;51.248;22.534;2023-04-22T00:37:57;14.55;;;8.30;;
23121;SDS011;11730;51.248;22.534;2023-04-22T00:40:24;19.98;;;8.40;;
23121;SDS011;11730;51.248;22.534;2023-04-22T00:42:51;16.77;;;7.70;;
23121;SDS011;11730;51.248;22.534;2023-04-22T00:45:19;13.32;;;7.75;;
23121;SDS011;11730;51.248;22.534;2023-04-22T00:47:46;14.38;;;7.32;;
23121;SDS011;11730;51.248;22.534;2023-04-22T00:50:14;13.32;;;7.72;;
23121;SDS011;11730;51.248;22.534;2023-04-22T00:52:41;17.42;;;7.45;;
23121;SDS011;11730;51.248;22.534;2023-04-22T00:55:09;12.90;;;7.00;;
23121;SDS011;11730;51.248;22.534;2023-04-22T00:57:37;14.13;;;7.13;;
23121;SDS011;11730;51.248;22.534;2023-04-22T01:00:04;14.32;;;7.47;;
23121;SDS011;11730;51.248;22.534;2023-04-22T01:02:32;17.60;;;8.77;;
23121;SDS011;11730;51.248;22.534;2023-04-22T01:04:59;14.15;;;8.27;;
23121;SDS011;11730;51.248;22.534;2023-04-22T01:07:29;13.15;;;7.80;;
23121;SDS011;11730;51.248;22.534;2023-04-22T01:09:56;10.18;;;6.95;;
23121;SDS011;11730;51.248;22.534;2023-04-22T01:12:23;13.40;;;7.40;;
23121;SDS011;11730;51.248;22.534;2023-04-22T01:14:50;16.88;;;7.40;;
23121;SDS011;11730;51.248;22.534;2023-04-22T01:17:17;13.75;;;7.70;;
23121;SDS011;11730;51.248;22.534;2023-04-22T01:19:44;11.75;;;7.75;;
23121;SDS011;11730;51.248;22.534;2023-04-22T01:22:13;12.98;;;7.25;;
23121;SDS011;11730;51.248;22.534;2023-04-22T01:24:40;14.10;;;7.20;;
23121;SDS011;11730;51.248;22.534;2023-04-22T01:27:08;15.27;;;7.13;;
23121;SDS011;11730;51.248;22.534;2023-04-22T01:29:35;11.18;;;6.78;;
23121;SDS011;11730;51.248;22.534;2023-04-22T01:32:04;11.23;;;7.38;;
23121;SDS011;11730;51.248;22.534;2023-04-22T01:34:32;10.45;;;6.65;;
23121;SDS011;11730;51.248;22.534;2023-04-22T01:36:59;15.73;;;8.20;;
23121;SDS011;11730;51.248;22.534;2023-04-22T01:39:26;15.73;;;7.90;;
23121;SDS011;11730;51.248;22.534;2023-04-22T01:41:55;15.80;;;7.75;;
23121;SDS011;11730;51.248;22.534;2023-04-22T01:44:24;12.38;;;7.30;;
23121;SDS011;11730;51.248;22.534;2023-04-22T01:46:52;9.57;;;6.25;;
23121;SDS011;11730;51.248;22.534;2023-04-22T01:49:19;12.65;;;7.25;;
23121;SDS011;11730;51.248;22.534;2023-04-22T01:51:46;13.18;;;7.75;;
23121;SDS011;11730;51.248;22.534;2023-04-22T01:54:13;12.40;;;7.25;;
23121;SDS011;11730;51.248;22.534;2023-04-22T01:56:41;14.40;;;7.05;;
23121;SDS011;11730;51.248;22.534;2023-04-22T01:59:14;12.50;;;7.45;;
23121;SDS011;11730;51.248;22.534;2023-04-22T02:01:41;11.10;;;6.53;;
23121;SDS011;11730;51.248;22.534;2023-04-22T02:04:08;12.02;;;6.28;;
23121;SDS011;11730;51.248;22.534;2023-04-22T02:06:36;12.13;;;7.00;;
23121;SDS011;11730;51.248;22.534;2023-04-22T02:09:03;9.25;;;6.10;;
23121;SDS011;11730;51.248;22.534;2023-04-22T02:11:30;12.10;;;6.90;;
23121;SDS011;11730;51.248;22.534;2023-04-22T02:13:57;11.48;;;6.97;;
23121;SDS011;11730;51.248;22.534;2023-04-22T02:16:24;10.15;;;6.95;;
23121;SDS011;11730;51.248;22.534;2023-04-22T02:18:51;14.07;;;7.03;;
23121;SDS011;11730;51.248;22.534;2023-04-22T02:21:18;13.48;;;7.15;;
23121;SDS011;11730;51.248;22.534;2023-04-22T02:23:45;12.95;;;6.93;;
23121;SDS011;11730;51.248;22.534;2023-04-22T02:26:12;12.23;;;6.85;;
23121;SDS011;11730;51.248;22.534;2023-04-22T02:28:40;10.25;;;6.30;;
23121;SDS011;11730;51.248;22.534;2023-04-22T02:31:08;10.55;;;7.10;;
23121;SDS011;11730;51.248;22.534;2023-04-22T02:33:35;11.75;;;7.45;;
23121;SDS011;11730;51.248;22.534;2023-04-22T02:36:02;12.18;;;6.90;;
23121;SDS011;11730;51.248;22.534;2023-04-22T02:38:29;12.60;;;7.63;;
23121;SDS011;11730;51.248;22.534;2023-04-22T02:40:56;15.60;;;7.95;;
23121;SDS011;11730;51.248;22.534;2023-04-22T02:43:23;16.17;;;7.45;;
23121;SDS011;11730;51.248;22.534;2023-04-22T02:45:51;17.88;;;8.27;;
23121;SDS011;11730;51.248;22.534;2023-04-22T02:48:18;16.88;;;8.20;;
23121;SDS011;11730;51.248;22.534;2023-04-22T02:50:45;17.73;;;7.75;;
23121;SDS011;11730;51.248;22.534;2023-04-22T02:53:12;16.02;;;8.50;;
23121;SDS011;11730;51.248;22.534;2023-04-22T02:55:39;18.48;;;9.10;;
23121;SDS011;11730;51.248;22.534;2023-04-22T02:58:07;18.40;;;9.20;;
23121;SDS011;11730;51.248;22.534;2023-04-22T03:00:34;14.60;;;8.82;;
23121;SDS011;11730;51.248;22.534;2023-04-22T03:03:01;16.60;;;8.93;;
23121;SDS011;11730;51.248;22.534;2023-04-22T03:05:29;22.10;;;9.63;;
23121;SDS011;11730;51.248;22.534;2023-04-22T03:07:56;15.50;;;8.80;;
23121;SDS011;11730;51.248;22.534;2023-04-22T03:10:23;15.52;;;8.77;;
23121;SDS011;11730;51.248;22.534;2023-04-22T03:12:50;18.23;;;9.55;;
23121;SDS011;11730;51.248;22.534;2023-04-22T03:15:17;16.00;;;9.15;;
23121;SDS011;11730;51.248;22.534;2023-04-22T03:17:46;16.90;;;9.25;;
23121;SDS011;11730;51.248;22.534;2023-04-22T03:20:14;16.55;;;9.05;;
23121;SDS011;11730;51.248;22.534;2023-04-22T03:22:42;21.38;;;9.55;;
23121;SDS011;11730;51.248;22.534;2023-04-22T03:25:09;16.88;;;10.05;;
23121;SDS011;11730;51.248;22.534;2023-04-22T03:27:36;25.55;;;14.40;;
23121;SDS011;11730;51.248;22.534;2023-04-22T03:30:04;19.70;;;11.82;;
23121;SDS011;11730;51.248;22.534;2023-04-22T03:32:31;23.63;;;12.10;;
23121;SDS011;11730;51.248;22.534;2023-04-22T03:34:59;20.73;;;12.30;;
23121;SDS011;11730;51.248;22.534;2023-04-22T03:37:26;19.55;;;10.00;;
23121;SDS011;11730;51.248;22.534;2023-04-22T03:39:54;19.60;;;10.18;;
23121;SDS011;11730;51.248;22.534;2023-04-22T03:42:21;22.58;;;11.43;;
23121;SDS011;11730;51.248;22.534;2023-04-22T03:44:48;20.38;;;10.98;;
23121;SDS011;11730;51.248;22.534;2023-04-22T03:47:15;17.80;;;10.05;;
23121;SDS011;11730;51.248;22.534;2023-04-22T03:49:43;19.75;;;9.82;;
23121;SDS011;11730;51.248;22.534;2023-04-22T03:52:09;25.63;;;12.20;;
23121;SDS011;11730;51.248;22.534;2023-04-22T03:54:37;24.52;;;12.75;;
23121;SDS011;11730;51.248;22.534;2023-04-22T03:57:04;26.23;;;13.05;;
23121;SDS011;11730;51.248;22.534;2023-04-22T03:59:31;19.42;;;10.57;;
23121;SDS011;11730;51.248;22.534;2023-04-22T04:01:58;18.73;;;9.73;;
23121;SDS011;11730;51.248;22.534;2023-04-22T04:04:25;20.05;;;9.45;;
23121;SDS011;11730;51.248;22.534;2023-04-22T04:06:55;18.60;;;9.85;;
23121;SDS011;11730;51.248;22.534;2023-04-22T04:09:22;14.52;;;9.10;;
23121;SDS011;11730;51.248;22.534;2023-04-22T04:11:49;17.90;;;10.68;;
23121;SDS011;11730;51.248;22.534;2023-04-22T04:14:17;27.77;;;10.43;;
23121;SDS011;11730;51.248;22.534;2023-04-22T04:16:44;19.38;;;9.23;;
23121;SDS011;11730;51.248;22.534;2023-04-22T04:19:11;17.05;;;8.95;;
23121;SDS011;11730;51.248;22.534;2023-04-22T04:21:38;18.20;;;8.98;;
23121;SDS011;11730;51.248;22.534;2023-04-22T04:24:05;14.48;;;8.20;;
23121;SDS011;11730;51.248;22.534;2023-04-22T04:26:32;14.32;;;9.45;;
23121;SDS011;11730;51.248;22.534;2023-04-22T04:28:59;19.75;;;8.90;;
23121;SDS011;11730;51.248;22.534;2023-04-22T04:31:30;16.63;;;8.35;;
23121;SDS011;11730;51.248;22.534;2023-04-22T04:33:57;22.10;;;9.57;;
23121;SDS011;11730;51.248;22.534;2023-04-22T04:36:25;15.57;;;8.30;;
23121;SDS011;11730;51.248;22.534;2023-04-22T04:38:54;19.60;;;11.80;;
23121;SDS011;11730;51.248;22.534;2023-04-22T04:41:21;24.73;;;11.57;;
23121;SDS011;11730;51.248;22.534;2023-04-22T04:43:49;18.13;;;9.95;;
23121;SDS011;11730;51.248;22.534;2023-04-22T04:46:17;19.88;;;9.52;;
23121;SDS011;11730;51.248;22.534;2023-04-22T04:48:46;18.75;;;9.60;;
23121;SDS011;11730;51.248;22.534;2023-04-22T04:51:13;24.73;;;10.20;;
23121;SDS011;11730;51.248;22.534;2023-04-22T04:53:44;21.45;;;10.05;;
23121;SDS011;11730;51.248;22.534;2023-04-22T04:56:11;24.50;;;9.48;;
23121;SDS011;11730;51.248;22.534;2023-04-22T04:58:39;16.80;;;9.00;;
23121;SDS011;11730;51.248;22.534;2023-04-22T05:01:05;23.13;;;9.40;;
23121;SDS011;11730;51.248;22.534;2023-04-22T05:03:33;17.52;;;8.88;;
23121;SDS011;11730;51.248;22.534;2023-04-22T05:06:00;14.35;;;8.38;;
23121;SDS011;11730;51.248;22.534;2023-04-22T05:08:28;12.90;;;7.93;;
23121;SDS011;11730;51.248;22.534;2023-04-22T05:10:55;14.30;;;8.77;;
23121;SDS011;11730;51.248;22.534;2023-04-22T05:13:22;17.23;;;8.30;;
23121;SDS011;11730;51.248;22.534;2023-04-22T05:15:49;15.65;;;8.27;;
23121;SDS011;11730;51.248;22.534;2023-04-22T05:18:16;18.00;;;9.43;;
23121;SDS011;11730;51.248;22.534;2023-04-22T05:20:44;17.13;;;9.02;;
23121;SDS011;11730;51.248;22.534;2023-04-22T05:23:10;17.30;;;9.13;;
23121;SDS011;11730;51.248;22.534;2023-04-22T05:25:37;16.67;;;10.57;;
23121;SDS011;11730;51.248;22.534;2023-04-22T05:28:04;16.48;;;9.50;;
23121;SDS011;11730;51.248;22.534;2023-04-22T05:30:31;21.65;;;9.82;;
23121;SDS011;11730;51.248;22.534;2023-04-22T05:32:58;15.23;;;8.93;;
23121;SDS011;11730;51.248;22.534;2023-04-22T05:35:25;16.73;;;8.02;;
23121;SDS011;11730;51.248;22.534;2023-04-22T05:37:52;14.63;;;9.27;;
23121;SDS011;11730;51.248;22.534;2023-04-22T05:40:20;22.55;;;9.18;;
23121;SDS011;11730;51.248;22.534;2023-04-22T05:42:47;14.93;;;8.43;;
23121;SDS011;11730;51.248;22.534;2023-04-22T05:45:14;18.25;;;9.93;;
23121;SDS011;11730;51.248;22.534;2023-04-22T05:47:41;15.45;;;9.32;;
23121;SDS011;11730;51.248;22.534;2023-04-22T05:50:08;18.55;;;8.02;;
23121;SDS011;11730;51.248;22.534;2023-04-22T05:52:35;16.48;;;8.25;;
23121;SDS011;11730;51.248;22.534;2023-04-22T05:55:02;11.73;;;7.10;;
23121;SDS011;11730;51.248;22.534;2023-04-22T05:57:30;12.73;;;7.10;;
23121;SDS011;11730;51.248;22.534;2023-04-22T05:59:57;10.57;;;6.78;;
23121;SDS011;11730;51.248;22.534;2023-04-22T06:02:28;13.20;;;7.07;;
23121;SDS011;11730;51.248;22.534;2023-04-22T06:04:56;11.18;;;6.82;;
23121;SDS011;11730;51.248;22.534;2023-04-22T06:07:23;16.25;;;7.80;;
23121;SDS011;11730;51.248;22.534;2023-04-22T06:09:50;13.65;;;7.32;;
23121;SDS011;11730;51.248;22.534;2023-04-22T06:12:29;12.48;;;7.95;;
23121;SDS011;11730;51.248;22.534;2023-04-22T06:14:56;18.75;;;7.90;;
23121;SDS011;11730;51.248;22.534;2023-04-22T06:17:23;14.82;;;8.20;;
23121;SDS011;11730;51.248;22.534;2023-04-22T06:19:50;14.07;;;7.85;;
23121;SDS011;11730;51.248;22.534;2023-04-22T06:22:20;15.23;;;7.80;;
23121;SDS011;11730;51.248;22.534;2023-04-22T06:24:47;11.65;;;6.60;;
23121;SDS011;11730;51.248;22.534;2023-04-22T06:27:13;8.93;;;5.25;;
23121;SDS011;11730;51.248;22.534;2023-04-22T06:29:41;9.20;;;5.47;;
23121;SDS011;11730;51.248;22.534;2023-04-22T06:32:09;12.77;;;5.57;;
23121;SDS011;11730;51.248;22.534;2023-04-22T06:34:35;8.18;;;5.32;;
23121;SDS011;11730;51.248;22.534;2023-04-22T06:37:03;10.07;;;5.40;;
23121;SDS011;11730;51.248;22.534;2023-04-22T06:39:31;12.18;;;5.88;;
23121;SDS011;11730;51.248;22.534;2023-04-22T06:41:58;12.00;;;5.18;;
23121;SDS011;11730;51.248;22.534;2023-04-22T06:44:27;13.20;;;5.82;;
23121;SDS011;11730;51.248;22.534;2023-04-22T06:46:54;11.55;;;6.28;;
23121;SDS011;11730;51.248;22.534;2023-04-22T06:49:23;13.25;;;7.15;;
23121;SDS011;11730;51.248;22.534;2023-04-22T06:51:50;17.23;;;7.63;;
23121;SDS011;11730;51.248;22.534;2023-04-22T06:54:17;13.77;;;7.32;;
23121;SDS011;11730;51.248;22.534;2023-04-22T06:56:44;14.85;;;7.68;;
23121;SDS011;11730;51.248;22.534;2023-04-22T06:59:11;14.52;;;8.13;;
23121;SDS011;11730;51.248;22.534;2023-04-22T07:01:38;12.95;;;7.07;;
23121;SDS011;11730;51.248;22.534;2023-04-22T07:04:06;10.55;;;6.35;;
23121;SDS011;11730;51.248;22.534;2023-04-22T07:06:33;16.48;;;8.25;;
23121;SDS011;11730;51.248;22.534;2023-04-22T07:09:00;15.73;;;5.68;;
23121;SDS011;11730;51.248;22.534;2023-04-22T07:11:28;10.07;;;4.35;;
23121;SDS011;11730;51.248;22.534;2023-04-22T07:13:59;9.95;;;4.43;;
23121;SDS011;11730;51.248;22.534;2023-04-22T07:16:26;10.82;;;5.70;;
23121;SDS011;11730;51.248;22.534;2023-04-22T07:18:54;10.45;;;4.53;;
23121;SDS011;11730;51.248;22.534;2023-04-22T07:21:21;8.85;;;5.57;;
23121;SDS011;11730;51.248;22.534;2023-04-22T07:23:48;13.98;;;6.32;;
23121;SDS011;11730;51.248;22.534;2023-04-22T07:26:16;8.45;;;4.80;;
23121;SDS011;11730;51.248;22.534;2023-04-22T07:28:42;10.25;;;4.97;;
23121;SDS011;11730;51.248;22.534;2023-04-22T07:31:09;8.80;;;4.32;;
23121;SDS011;11730;51.248;22.534;2023-04-22T07:33:36;6.65;;;3.60;;
23121;SDS011;11730;51.248;22.534;2023-04-22T07:36:03;6.88;;;3.25;;
23121;SDS011;11730;51.248;22.534;2023-04-22T07:38:31;8.85;;;3.70;;
23121;SDS011;11730;51.248;22.534;2023-04-22T07:40:58;7.10;;;3.22;;
23121;SDS011;11730;51.248;22.534;2023-04-22T07:43:25;6.50;;;2.90;;
23121;SDS011;11730;51.248;22.534;2023-04-22T07:45:52;4.28;;;3.05;;
23121;SDS011;11730;51.248;22.534;2023-04-22T07:48:19;7.80;;;3.10;;
23121;SDS011;11730;51.248;22.534;2023-04-22T07:50:46;8.20;;;4.32;;
23121;SDS011;11730;51.248;22.534;2023-04-22T07:53:13;6.15;;;4.20;;
23121;SDS011;11730;51.248;22.534;2023-04-22T07:55:42;5.53;;;3.25;;
23121;SDS011;11730;51.248;22.534;2023-04-22T07:58:09;7.47;;;3.00;;
23121;SDS011;11730;51.248;22.534;2023-04-22T08:00:37;5.88;;;3.10;;
23121;SDS011;11730;51.248;22.534;2023-04-22T08:03:04;4.90;;;2.63;;
23121;SDS011;11730;51.248;22.534;2023-04-22T08:05:31;8.77;;;4.25;;
23121;SDS011;11730;51.248;22.534;2023-04-22T08:07:58;9.75;;;4.35;;
23121;SDS011;11730;51.248;22.534;2023-04-22T08:10:25;9.43;;;4.00;;
23121;SDS011;11730;51.248;22.534;2023-04-22T08:12:51;3.80;;;2.60;;
23121;SDS011;11730;51.248;22.534;2023-04-22T08:15:19;7.10;;;2.60;;
23121;SDS011;11730;51.248;22.534;2023-04-22T08:17:46;9.32;;;2.55;;
23121;SDS011;11730;51.248;22.534;2023-04-22T08:20:13;4.00;;;2.38;;
23121;SDS011;11730;51.248;22.534;2023-04-22T08:22:41;4.70;;;2.22;;
23121;SDS011;11730;51.248;22.534;2023-04-22T08:25:08;9.35;;;2.47;;
23121;SDS011;11730;51.248;22.534;2023-04-22T08:27:36;5.45;;;2.97;;
23121;SDS011;11730;51.248;22.534;2023-04-22T08:30:04;9.13;;;2.75;;
23121;SDS011;11730;51.248;22.534;2023-04-22T08:32:32;5.30;;;2.63;;
23121;SDS011;11730;51.248;22.534;2023-04-22T08:34:58;4.63;;;2.38;;
23121;SDS011;11730;51.248;22.534;2023-04-22T08:37:30;4.45;;;2.35;;
23121;SDS011;11730;51.248;22.534;2023-04-22T08:39:57;6.28;;;2.40;;
23121;SDS011;11730;51.248;22.534;2023-04-22T08:42:25;12.75;;;3.58;;
23121;SDS011;11730;51.248;22.534;2023-04-22T08:44:53;5.15;;;2.95;;
23121;SDS011;11730;51.248;22.534;2023-04-22T08:47:20;6.28;;;4.07;;
23121;SDS011;11730;51.248;22.534;2023-04-22T08:49:47;11.95;;;4.30;;
23121;SDS011;11730;51.248;22.534;2023-04-22T08:52:17;10.07;;;4.13;;
23121;SDS011;11730;51.248;22.534;2023-04-22T08:54:44;13.35;;;4.20;;
23121;SDS011;11730;51.248;22.534;2023-04-22T08:57:11;6.13;;;3.83;;
23121;SDS011;11730;51.248;22.534;2023-04-22T08:59:40;5.95;;;3.83;;
23121;SDS011;11730;51.248;22.534;2023-04-22T09:02:09;10.75;;;3.80;;
23121;SDS011;11730;51.248;22.534;2023-04-22T09:04:42;9.57;;;4.38;;
23121;SDS011;11730;51.248;22.534;2023-04-22T09:07:12;5.18;;;3.38;;
23121;SDS011;11730;51.248;22.534;2023-04-22T09:09:45;7.28;;;3.42;;
23121;SDS011;11730;51.248;22.534;2023-04-22T09:12:13;7.25;;;3.55;;
23121;SDS011;11730;51.248;22.534;2023-04-22T09:14:43;8.15;;;3.60;;
23121;SDS011;11730;51.248;22.534;2023-04-22T09:17:14;7.72;;;3.38;;
23121;SDS011;11730;51.248;22.534;2023-04-22T09:19:58;7.18;;;4.50;;
23121;SDS011;11730;51.248;22.534;2023-04-22T09:22:26;26.60;;;15.57;;
23121;SDS011;11730;51.248;22.534;2023-04-22T09:24:54;7.30;;;3.45;;
23121;SDS011;11730;51.248;22.534;2023-04-22T09:27:23;6.65;;;4.57;;
23121;SDS011;11730;51.248;22.534;2023-04-22T09:29:50;4.80;;;3.30;;
23121;SDS011;11730;51.248;22.534;2023-04-22T09:32:18;10.23;;;3.45;;
23121;SDS011;11730;51.248;22.534;2023-04-22T09:34:49;6.18;;;3.22;;
23121;SDS011;11730;51.248;22.534;2023-04-22T09:37:18;5.63;;;2.92;;
23121;SDS011;11730;51.248;22.534;2023-04-22T09:40:07;4.55;;;3.10;;
23121;SDS011;11730;51.248;22.534;2023-04-22T09:42:35;5.35;;;2.72;;
23121;SDS011;11730;51.248;22.534;2023-04-22T09:45:14;6.88;;;3.13;;
23121;SDS011;11730;51.248;22.534;2023-04-22T09:47:54;7.07;;;2.92;;
23121;SDS011;11730;51.248;22.534;2023-04-22T09:50:23;14.35;;;3.30;;
23121;SDS011;11730;51.248;22.534;2023-04-22T09:52:55;3.35;;;2.40;;
23121;SDS011;11730;51.248;22.534;2023-04-22T09:55:24;3.42;;;2.50;;
23121;SDS011;11730;51.248;22.534;2023-04-22T09:57:53;7.28;;;2.53;;
23121;SDS011;11730;51.248;22.534;2023-04-22T10:00:22;4.00;;;2.65;;
23121;SDS011;11730;51.248;22.534;2023-04-22T10:02:52;4.82;;;3.03;;
23121;SDS011;11730;51.248;22.534;2023-04-22T10:05:20;14.88;;;8.63;;
23121;SDS011;11730;51.248;22.534;2023-04-22T10:07:47;3.08;;;2.47;;
23121;SDS011;11730;51.248;22.534;2023-04-22T10:10:15;6.53;;;4.43;;
23121;SDS011;11730;51.248;22.534;2023-04-22T10:12:42;8.85;;;5.10;;
23121;SDS011;11730;51.248;22.534;2023-04-22T10:15:10;5.65;;;2.70;;
23121;SDS011;11730;51.248;22.534;2023-04-22T10:17:37;4.13;;;2.30;;
23121;SDS011;11730;51.248;22.534;2023-04-22T10:20:06;6.47;;;2.63;;
23121;SDS011;11730;51.248;22.534;2023-04-22T10:22:41;4.40;;;3.17;;
23121;SDS011;11730;51.248;22.534;2023-04-22T10:25:10;5.82;;;2.63;;
23121;SDS011;11730;51.248;22.534;2023-04-22T10:27:38;6.30;;;3.00;;
23121;SDS011;11730;51.248;22.534;2023-04-22T10:30:06;4.15;;;2.65;;
23121;SDS011;11730;51.248;22.534;2023-04-22T10:32:34;4.20;;;2.78;;
23121;SDS011;11730;51.248;22.534;2023-04-22T10:35:08;4.32;;;3.13;;
23121;SDS011;11730;51.248;22.534;2023-04-22T10:37:40;4.53;;;3.10;;
23121;SDS011;11730;51.248;22.534;2023-04-22T10:40:14;5.50;;;3.40;;
23121;SDS011;11730;51.248;22.534;2023-04-22T10:42:47;4.60;;;3.22;;
23121;SDS011;11730;51.248;22.534;2023-04-22T10:45:16;3.70;;;2.92;;
23121;SDS011;11730;51.248;22.534;2023-04-22T10:47:44;4.63;;;3.55;;
23121;SDS011;11730;51.248;22.534;2023-04-22T10:50:24;7.30;;;5.10;;
23121;SDS011;11730;51.248;22.534;2023-04-22T10:52:58;7.07;;;3.20;;
23121;SDS011;11730;51.248;22.534;2023-04-22T10:55:47;7.20;;;4.05;;
23121;SDS011;11730;51.248;22.534;2023-04-22T10:58:19;6.25;;;3.10;;
23121;SDS011;11730;51.248;22.534;2023-04-22T11:00:47;16.02;;;9.60;;
23121;SDS011;11730;51.248;22.534;2023-04-22T11:03:23;16.15;;;5.75;;
23121;SDS011;11730;51.248;22.534;2023-04-22T11:06:12;8.82;;;3.95;;
23121;SDS011;11730;51.248;22.534;2023-04-22T11:08:46;8.32;;;3.13;;
23121;SDS011;11730;51.248;22.534;2023-04-22T11:11:15;4.53;;;2.97;;
23121;SDS011;11730;51.248;22.534;2023-04-22T11:13:45;6.65;;;2.80;;
23121;SDS011;11730;51.248;22.534;2023-04-22T11:16:15;5.35;;;3.03;;
23121;SDS011;11730;51.248;22.534;2023-04-22T11:18:45;9.13;;;3.60;;
23121;SDS011;11730;51.248;22.534;2023-04-22T11:21:13;6.45;;;3.00;;
23121;SDS011;11730;51.248;22.534;2023-04-22T11:23:48;4.65;;;2.78;;
23121;SDS011;11730;51.248;22.534;2023-04-22T11:26:30;5.25;;;2.80;;
23121;SDS011;11730;51.248;22.534;2023-04-22T11:28:59;5.60;;;2.65;;
23121;SDS011;11730;51.248;22.534;2023-04-22T11:31:27;7.68;;;3.10;;
23121;SDS011;11730;51.248;22.534;2023-04-22T11:33:57;5.82;;;3.05;;
23121;SDS011;11730;51.248;22.534;2023-04-22T11:36:24;4.72;;;2.90;;
23121;SDS011;11730;51.248;22.534;2023-04-22T11:38:53;8.63;;;3.30;;
23121;SDS011;11730;51.248;22.534;2023-04-22T11:41:21;6.93;;;2.92;;
23121;SDS011;11730;51.248;22.534;2023-04-22T11:43:49;7.13;;;3.00;;
23121;SDS011;11730;51.248;22.534;2023-04-22T11:46:26;6.68;;;3.42;;
23121;SDS011;11730;51.248;22.534;2023-04-22T11:49:09;6.90;;;3.85;;
23121;SDS011;11730;51.248;22.534;2023-04-22T11:51:52;7.38;;;4.90;;
23121;SDS011;11730;51.248;22.534;2023-04-22T11:56:57;7.75;;;3.90;;
23121;SDS011;11730;51.248;22.534;2023-04-22T11:59:27;5.97;;;3.90;;
23121;SDS011;11730;51.248;22.534;2023-04-22T12:01:54;8.38;;;3.80;;
23121;SDS011;11730;51.248;22.534;2023-04-22T12:04:21;10.90;;;4.85;;
23121;SDS011;11730;51.248;22.534;2023-04-22T12:06:52;9.50;;;3.50;;
23121;SDS011;11730;51.248;22.534;2023-04-22T12:09:22;7.28;;;3.47;;
23121;SDS011;11730;51.248;22.534;2023-04-22T12:11:51;4.87;;;3.17;;
23121;SDS011;11730;51.248;22.534;2023-04-22T12:14:17;7.45;;;3.50;;
23121;SDS011;11730;51.248;22.534;2023-04-22T12:16:44;4.65;;;3.45;;
23121;SDS011;11730;51.248;22.534;2023-04-22T12:19:12;10.95;;;3.78;;
23121;SDS011;11730;51.248;22.534;2023-04-22T12:21:39;8.25;;;3.30;;
23121;SDS011;11730;51.248;22.534;2023-04-22T12:24:07;5.95;;;3.53;;
23121;SDS011;11730;51.248;22.534;2023-04-22T12:26:38;5.07;;;3.60;;
23121;SDS011;11730;51.248;22.534;2023-04-22T12:29:05;8.07;;;3.38;;
23121;SDS011;11730;51.248;22.534;2023-04-22T12:31:32;8.88;;;4.45;;
23121;SDS011;11730;51.248;22.534;2023-04-22T12:34:00;6.68;;;3.70;;
23121;SDS011;11730;51.248;22.534;2023-04-22T12:36:28;9.05;;;4.55;;
23121;SDS011;11730;51.248;22.534;2023-04-22T12:38:57;8.32;;;4.45;;
23121;SDS011;11730;51.248;22.534;2023-04-22T12:41:24;8.23;;;3.92;;
23121;SDS011;11730;51.248;22.534;2023-04-22T12:43:51;5.38;;;3.63;;
23121;SDS011;11730;51.248;22.534;2023-04-22T12:46:20;6.72;;;3.58;;
23121;SDS011;11730;51.248;22.534;2023-04-22T12:48:47;5.95;;;3.67;;
23121;SDS011;11730;51.248;22.534;2023-04-22T12:51:14;8.52;;;3.88;;
23121;SDS011;11730;51.248;22.534;2023-04-22T12:53:41;5.40;;;3.80;;
23121;SDS011;11730;51.248;22.534;2023-04-22T12:56:09;6.18;;;3.63;;
23121;SDS011;11730;51.248;22.534;2023-04-22T12:58:36;8.07;;;5.40;;
23121;SDS011;11730;51.248;22.534;2023-04-22T13:01:03;9.75;;;4.10;;
23121;SDS011;11730;51.248;22.534;2023-04-22T13:03:30;6.80;;;3.78;;
23121;SDS011;11730;51.248;22.534;2023-04-22T13:05:58;6.57;;;4.72;;
23121;SDS011;11730;51.248;22.534;2023-04-22T13:08:25;11.15;;;6.55;;
23121;SDS011;11730;51.248;22.534;2023-04-22T13:10:53;7.85;;;4.78;;
23121;SDS011;11730;51.248;22.534;2023-04-22T13:13:20;11.40;;;5.50;;
23121;SDS011;11730;51.248;22.534;2023-04-22T13:15:47;9.63;;;4.90;;
23121;SDS011;11730;51.248;22.534;2023-04-22T13:18:20;8.70;;;4.80;;
23121;SDS011;11730;51.248;22.534;2023-04-22T13:20:48;7.72;;;4.40;;
23121;SDS011;11730;51.248;22.534;2023-04-22T13:23:16;6.78;;;3.80;;
23121;SDS011;11730;51.248;22.534;2023-04-22T13:25:47;13.95;;;4.28;;
23121;SDS011;11730;51.248;22.534;2023-04-22T13:28:14;9.32;;;3.97;;
23121;SDS011;11730;51.248;22.534;2023-04-22T13:30:41;9.32;;;4.15;;
23121;SDS011;11730;51.248;22.534;2023-04-22T13:33:08;7.63;;;4.03;;
23121;SDS011;11730;51.248;22.534;2023-04-22T13:35:35;7.05;;;4.10;;
23121;SDS011;11730;51.248;22.534;2023-04-22T13:38:02;9.20;;;4.18;;
23121;SDS011;11730;51.248;22.534;2023-04-22T13:40:30;6.03;;;4.05;;
23121;SDS011;11730;51.248;22.534;2023-04-22T13:42:58;9.18;;;3.95;;
23121;SDS011;11730;51.248;22.534;2023-04-22T13:45:25;6.20;;;4.00;;
23121;SDS011;11730;51.248;22.534;2023-04-22T13:47:53;9.52;;;5.20;;
23121;SDS011;11730;51.248;22.534;2023-04-22T13:50:20;13.07;;;5.57;;
23121;SDS011;11730;51.248;22.534;2023-04-22T13:52:47;9.15;;;4.30;;
23121;SDS011;11730;51.248;22.534;2023-04-22T13:55:14;7.22;;;4.57;;
23121;SDS011;11730;51.248;22.534;2023-04-22T13:57:41;8.98;;;4.45;;
23121;SDS011;11730;51.248;22.534;2023-04-22T14:00:09;10.23;;;4.88;;
23121;SDS011;11730;51.248;22.534;2023-04-22T14:02:37;11.38;;;5.00;;
23121;SDS011;11730;51.248;22.534;2023-04-22T14:05:04;8.27;;;5.38;;
23121;SDS011;11730;51.248;22.534;2023-04-22T14:07:32;11.52;;;3.97;;
23121;SDS011;11730;51.248;22.534;2023-04-22T14:10:00;12.02;;;6.05;;
23121;SDS011;11730;51.248;22.534;2023-04-22T14:12:26;8.27;;;4.18;;
23121;SDS011;11730;51.248;22.534;2023-04-22T14:14:53;7.95;;;4.72;;
23121;SDS011;11730;51.248;22.534;2023-04-22T14:17:20;6.03;;;3.85;;
23121;SDS011;11730;51.248;22.534;2023-04-22T14:19:49;9.35;;;6.97;;
23121;SDS011;11730;51.248;22.534;2023-04-22T14:22:16;6.22;;;4.05;;
23121;SDS011;11730;51.248;22.534;2023-04-22T14:24:43;6.50;;;3.70;;
23121;SDS011;11730;51.248;22.534;2023-04-22T14:27:10;7.45;;;4.00;;
23121;SDS011;11730;51.248;22.534;2023-04-22T14:29:39;10.23;;;4.43;;
23121;SDS011;11730;51.248;22.534;2023-04-22T14:32:06;5.88;;;3.88;;
23121;SDS011;11730;51.248;22.534;2023-04-22T14:34:33;5.40;;;3.90;;